createdAt,value
2022-11-20T00:01:31.914Z,1.85
2022-11-20T00:04:34.378Z,1.75
2022-11-20T00:07:38.773Z,1.48
2022-11-20T00:10:46.798Z,1.52
2022-11-20T00:13:50.318Z,1.48
2022-11-20T00:16:52.975Z,1.60
2022-11-20T00:19:55.663Z,1.98
2022-11-20T00:22:59.186Z,1.63
2022-11-20T00:26:06.571Z,1.77
2022-11-20T00:29:11.159Z,2.00
2022-11-20T00:32:13.667Z,2.15
2022-11-20T00:35:17.511Z,1.58
2022-11-20T00:38:20.973Z,1.90
2022-11-20T00:41:25.164Z,1.85
2022-11-20T00:44:28.049Z,1.52
2022-11-20T00:47:30.550Z,1.98
2022-11-20T00:50:34.061Z,2.47
2022-11-20T00:53:36.614Z,1.63
2022-11-20T00:56:40.928Z,1.67
2022-11-20T00:59:43.485Z,2.10
2022-11-20T01:02:46.545Z,1.85
2022-11-20T01:05:49.004Z,1.92
2022-11-20T01:08:52.579Z,1.65
2022-11-20T01:11:57.074Z,1.92
2022-11-20T01:14:59.553Z,1.88
2022-11-20T01:18:01.976Z,1.80
2022-11-20T01:21:04.898Z,1.52
2022-11-20T01:24:08.920Z,1.75
2022-11-20T01:27:13.376Z,1.65
2022-11-20T01:30:16.016Z,1.58
2022-11-20T01:33:18.590Z,2.47
2022-11-20T01:36:22.462Z,1.88
2022-11-20T01:39:25.899Z,1.90
2022-11-20T01:42:47.640Z,1.60
2022-11-20T01:46:05.400Z,1.70
2022-11-20T01:49:13.365Z,2.03
2022-11-20T01:52:18.308Z,1.55
2022-11-20T01:55:22.435Z,1.80
2022-11-20T01:58:29.236Z,2.15
2022-11-20T02:01:32.747Z,1.85
2022-11-20T02:04:36.139Z,1.73
2022-11-20T02:07:39.409Z,1.70
2022-11-20T02:10:42.209Z,1.48
2022-11-20T02:13:46.954Z,1.95
2022-11-20T02:16:51.626Z,2.22
2022-11-20T02:19:54.273Z,1.75
2022-11-20T02:22:59.669Z,1.45
2022-11-20T02:26:05.058Z,1.73
2022-11-20T02:29:07.608Z,1.58
2022-11-20T02:32:22.973Z,1.73
2022-11-20T02:35:42.660Z,1.63
2022-11-20T02:38:45.684Z,1.98
2022-11-20T02:41:49.645Z,1.90
2022-11-20T02:44:52.167Z,1.48
2022-11-20T02:47:55.009Z,1.50
2022-11-20T02:50:57.505Z,1.73
2022-11-20T02:53:59.949Z,1.75
2022-11-20T02:57:05.842Z,1.50
2022-11-20T03:00:08.984Z,1.67
2022-11-20T03:03:11.426Z,2.17
2022-11-20T03:06:13.969Z,2.13
2022-11-20T03:09:16.539Z,1.67
2022-11-20T03:12:20.688Z,1.63
2022-11-20T03:15:23.221Z,1.85
2022-11-20T03:18:25.877Z,1.63
2022-11-20T03:21:28.983Z,2.08
2022-11-20T03:24:31.832Z,1.92
2022-11-20T03:27:36.498Z,1.70
2022-11-20T03:30:39.066Z,2.00
2022-11-20T03:33:43.012Z,1.85
2022-11-20T03:36:46.233Z,2.08
2022-11-20T03:39:49.605Z,1.92
2022-11-20T03:42:53.485Z,1.95
2022-11-20T03:45:56.211Z,1.83
2022-11-20T03:49:00.838Z,1.75
2022-11-20T03:52:03.330Z,1.95
2022-11-20T03:55:06.127Z,2.28
2022-11-20T03:58:10.598Z,2.10
2022-11-20T04:01:14.622Z,2.25
2022-11-20T04:04:18.000Z,1.98
2022-11-20T04:07:21.511Z,2.05
2022-11-20T04:10:25.512Z,2.30
2022-11-20T04:13:29.466Z,1.70
2022-11-20T04:16:33.193Z,1.98
2022-11-20T04:19:36.924Z,1.75
2022-11-20T04:22:39.423Z,1.85
2022-11-20T04:25:41.942Z,2.13
2022-11-20T04:28:45.815Z,2.00
2022-11-20T04:31:49.213Z,1.88
2022-11-20T04:34:52.022Z,2.17
2022-11-20T04:37:54.638Z,1.98
2022-11-20T04:41:00.814Z,1.58
2022-11-20T04:44:05.752Z,1.88
2022-11-20T04:47:09.372Z,1.92
2022-11-20T04:50:11.943Z,1.95
2022-11-20T04:53:14.469Z,1.58
2022-11-20T04:56:17.380Z,1.85
2022-11-20T04:59:21.462Z,1.55
2022-11-20T05:02:24.894Z,1.98
2022-11-20T05:05:27.339Z,1.70
2022-11-20T05:08:30.212Z,2.03
2022-11-20T05:11:41.444Z,1.85
2022-11-20T05:14:48.256Z,1.58
2022-11-20T05:17:50.926Z,1.60
2022-11-20T05:20:56.824Z,1.65
2022-11-20T05:23:59.248Z,2.00
2022-11-20T05:27:01.778Z,1.90
2022-11-20T05:30:06.211Z,1.67
2022-11-20T05:33:09.678Z,1.73
2022-11-20T05:36:13.432Z,1.50
2022-11-20T05:39:15.978Z,1.70
2022-11-20T05:42:33.422Z,1.83
2022-11-20T05:45:37.323Z,1.92
2022-11-20T05:48:40.614Z,1.77
2022-11-20T05:51:49.252Z,2.20
2022-11-20T05:54:51.859Z,2.05
2022-11-20T05:57:54.742Z,1.95
2022-11-20T06:01:04.661Z,1.65
2022-11-20T06:04:07.232Z,1.80
2022-11-20T06:07:09.766Z,1.92
2022-11-20T06:10:12.869Z,1.45
2022-11-20T06:13:15.304Z,1.80
2022-11-20T06:16:19.848Z,2.00
2022-11-20T06:19:22.555Z,1.90
2022-11-20T06:22:54.011Z,1.60
2022-11-20T06:25:57.240Z,1.88
2022-11-20T06:28:59.784Z,1.75
2022-11-20T06:32:10.313Z,1.70
2022-11-20T06:35:13.009Z,1.88
2022-11-20T06:38:15.420Z,1.50
2022-11-20T06:41:19.001Z,1.60
2022-11-20T06:44:21.751Z,1.65
2022-11-20T06:47:25.597Z,1.83
2022-11-20T06:50:28.149Z,1.48
2022-11-20T06:53:30.792Z,1.73
2022-11-20T06:56:33.253Z,1.90
2022-11-20T06:59:35.858Z,1.95
2022-11-20T07:02:39.968Z,1.70
2022-11-20T07:05:42.657Z,2.03
2022-11-20T07:08:45.183Z,1.55
2022-11-20T07:11:47.716Z,1.52
2022-11-20T07:14:52.250Z,2.15
2022-11-20T07:17:56.715Z,1.80
2022-11-20T07:21:02.095Z,2.05
2022-11-20T07:24:04.759Z,1.98
2022-11-20T07:27:07.395Z,1.70
2022-11-20T07:30:10.213Z,1.88
2022-11-20T07:33:14.011Z,1.63
2022-11-20T07:36:16.634Z,1.67
2022-11-20T07:39:19.326Z,2.13
2022-11-20T07:42:21.998Z,1.80
2022-11-20T07:45:27.168Z,2.10
2022-11-20T07:48:31.154Z,1.67
2022-11-20T07:51:34.125Z,2.08
2022-11-20T07:54:36.709Z,2.17
2022-11-20T07:57:39.815Z,1.85
2022-11-20T08:00:42.691Z,1.70
2022-11-20T08:03:46.901Z,2.15
2022-11-20T08:06:49.534Z,2.05
2022-11-20T08:09:52.134Z,2.40
2022-11-20T08:13:12.817Z,1.67
2022-11-20T08:16:15.355Z,2.15
2022-11-20T08:19:20.478Z,1.92
2022-11-20T08:22:23.380Z,2.38
2022-11-20T08:25:26.144Z,1.83
2022-11-20T08:28:28.865Z,1.85
2022-11-20T08:31:31.442Z,2.17
2022-11-20T08:34:38.319Z,1.65
2022-11-20T08:37:49.359Z,1.70
2022-11-20T08:41:05.805Z,1.73
2022-11-20T08:44:09.585Z,1.70
2022-11-20T08:47:12.050Z,1.80
2022-11-20T08:50:19.794Z,2.30
2022-11-20T08:53:22.296Z,1.88
2022-11-20T08:56:24.995Z,1.95
2022-11-20T08:59:50.812Z,1.95
2022-11-20T09:02:50.185Z,1.70
2022-11-20T09:05:58.194Z,1.67
2022-11-20T09:09:06.121Z,1.88
2022-11-20T09:12:09.398Z,1.90
2022-11-20T09:15:12.348Z,1.70
2022-11-20T09:18:16.069Z,1.73
2022-11-20T09:21:20.147Z,1.77
2022-11-20T09:24:22.779Z,1.98
2022-11-20T09:27:25.385Z,1.95
2022-11-20T09:30:28.072Z,1.58
2022-11-20T09:33:31.784Z,1.38
2022-11-20T09:36:35.809Z,1.80
2022-11-20T09:39:39.988Z,1.45
2022-11-20T09:42:45.816Z,1.60
2022-11-20T09:45:56.326Z,1.58
2022-11-20T09:49:05.526Z,1.40
2022-11-20T09:52:16.745Z,1.48
2022-11-20T09:55:19.345Z,1.63
2022-11-20T09:58:30.435Z,1.52
2022-11-20T10:01:34.646Z,1.48
2022-11-20T10:04:40.933Z,1.42
2022-11-20T10:07:45.998Z,1.15
2022-11-20T10:10:52.598Z,1.30
2022-11-20T10:14:00.610Z,1.38
2022-11-20T10:17:06.114Z,1.42
2022-11-20T10:20:16.772Z,1.67
2022-11-20T10:23:26.677Z,1.33
2022-11-20T10:26:36.595Z,1.73
2022-11-20T10:29:41.772Z,1.75
2022-11-20T10:32:45.616Z,1.55
2022-11-20T10:35:51.550Z,1.60
2022-11-20T10:38:57.088Z,0.95
2022-11-20T10:42:00.496Z,1.65
2022-11-20T10:45:11.788Z,1.33
2022-11-20T10:48:17.687Z,1.40
2022-11-20T10:51:24.681Z,1.17
2022-11-20T10:54:34.092Z,1.27
2022-11-20T10:57:46.424Z,1.58
2022-11-20T11:00:49.151Z,6.68
2022-11-20T11:03:52.863Z,1.90
2022-11-20T11:06:58.835Z,1.90
2022-11-20T11:10:02.787Z,1.63
2022-11-20T11:13:05.444Z,1.70
2022-11-20T11:16:08.013Z,1.77
2022-11-20T11:19:14.487Z,1.50
2022-11-20T11:22:19.813Z,1.05
2022-11-20T11:25:29.944Z,1.13
2022-11-20T11:28:36.641Z,1.38
2022-11-20T11:31:39.332Z,1.13
2022-11-20T11:34:42.216Z,1.20
2022-11-20T11:37:45.564Z,1.25
2022-11-20T11:40:49.530Z,1.50
2022-11-20T11:44:12.008Z,1.25
2022-11-20T11:47:22.535Z,1.38
2022-11-20T11:50:26.490Z,1.38
2022-11-20T11:53:29.930Z,1.38
2022-11-20T11:56:35.113Z,1.38
2022-11-20T11:59:44.135Z,1.08
2022-11-20T12:02:51.278Z,1.27
2022-11-20T12:05:59.097Z,1.25
2022-11-20T12:09:04.484Z,0.90
2022-11-20T12:12:12.745Z,1.10
2022-11-20T12:15:23.576Z,1.48
2022-11-20T12:18:26.256Z,1.00
2022-11-20T12:21:33.668Z,1.42
2022-11-20T12:24:46.921Z,1.40
2022-11-20T12:27:56.933Z,1.02
2022-11-20T12:31:10.328Z,1.00
2022-11-20T12:34:21.131Z,1.00
2022-11-20T12:37:30.303Z,0.88
2022-11-20T12:40:35.945Z,1.00
2022-11-20T12:44:16.881Z,1.27
2022-11-20T12:47:23.863Z,1.45
2022-11-20T12:50:42.855Z,1.20
2022-11-20T12:54:02.536Z,1.20
2022-11-20T12:57:07.769Z,1.13
2022-11-20T13:00:14.885Z,1.35
2022-11-20T13:03:41.087Z,1.05
2022-11-20T13:06:44.315Z,0.90
2022-11-20T13:09:47.998Z,0.75
2022-11-20T13:12:53.317Z,0.95
2022-11-20T13:15:59.692Z,2.10
2022-11-20T13:19:03.719Z,1.20
2022-11-20T13:22:06.177Z,0.73
2022-11-20T13:25:16.223Z,0.80
2022-11-20T13:28:29.111Z,0.90
2022-11-20T13:31:34.311Z,0.90
2022-11-20T13:34:37.837Z,0.85
2022-11-20T13:37:41.417Z,0.82
2022-11-20T13:40:52.710Z,1.10
2022-11-20T13:43:56.148Z,0.90
2022-11-20T13:47:00.004Z,0.82
2022-11-20T13:50:05.021Z,0.70
2022-11-20T13:53:14.498Z,0.95
2022-11-20T13:56:23.937Z,1.75
2022-11-20T13:59:33.543Z,1.52
2022-11-20T14:02:38.387Z,1.45
2022-11-20T14:05:58.087Z,1.10
2022-11-20T14:09:01.248Z,1.08
2022-11-20T14:12:04.827Z,1.52
2022-11-20T14:15:08.290Z,1.30
2022-11-20T14:18:16.785Z,1.42
2022-11-20T14:21:29.687Z,1.35
2022-11-20T14:24:32.351Z,1.10
2022-11-20T14:27:36.693Z,1.27
2022-11-20T14:30:44.169Z,1.55
2022-11-20T14:33:48.807Z,1.70
2022-11-20T14:36:54.266Z,1.27
2022-11-20T14:39:59.740Z,0.98
2022-11-20T14:43:03.031Z,1.25
2022-11-20T14:46:06.939Z,0.90
2022-11-20T14:49:12.196Z,1.20
2022-11-20T14:52:15.634Z,1.58
2022-11-20T14:55:26.734Z,0.82
2022-11-20T14:58:30.134Z,1.52
2022-11-20T15:01:34.104Z,1.27
2022-11-20T15:04:47.804Z,0.95
2022-11-20T15:07:51.692Z,1.77
2022-11-20T15:10:54.995Z,1.85
2022-11-20T15:13:57.910Z,1.10
2022-11-20T15:17:01.043Z,1.17
2022-11-20T15:20:07.890Z,1.70
2022-11-20T15:23:11.908Z,1.60
2022-11-20T15:26:19.872Z,1.38
2022-11-20T15:29:24.522Z,1.27
2022-11-20T15:32:27.104Z,1.92
2022-11-20T15:35:31.015Z,1.23
2022-11-20T15:38:33.556Z,1.38
2022-11-20T15:41:36.175Z,1.30
2022-11-20T15:44:38.807Z,1.67
2022-11-20T15:47:41.597Z,1.40
2022-11-20T15:50:51.452Z,1.75
2022-11-20T15:53:54.030Z,1.92
2022-11-20T15:56:56.553Z,2.03
2022-11-20T15:59:59.213Z,2.00
2022-11-20T16:03:02.066Z,1.98
2022-11-20T16:06:06.145Z,1.45
2022-11-20T16:09:09.013Z,1.45
2022-11-20T16:12:31.973Z,1.65
2022-11-20T16:15:49.007Z,3.00
2022-11-20T16:18:51.616Z,2.05
2022-11-20T16:22:01.191Z,1.70
2022-11-20T16:25:05.618Z,1.83
2022-11-20T16:28:08.178Z,1.80
2022-11-20T16:31:11.535Z,1.98
2022-11-20T16:34:14.089Z,1.20
2022-11-20T16:37:18.051Z,1.50
2022-11-20T16:40:20.649Z,1.30
2022-11-20T16:43:23.186Z,1.58
2022-11-20T16:46:26.503Z,1.60
2022-11-20T16:49:29.108Z,1.95
2022-11-20T16:52:33.187Z,3.10
2022-11-20T16:55:35.779Z,2.15
2022-11-20T16:58:38.448Z,6.55
2022-11-20T17:01:43.068Z,9.25
2022-11-20T17:04:45.771Z,3.33
2022-11-20T17:07:49.720Z,2.00
2022-11-20T17:10:52.349Z,1.77
2022-11-20T17:13:55.889Z,1.70
2022-11-20T17:16:58.473Z,1.75
2022-11-20T17:20:01.033Z,1.50
2022-11-20T17:23:04.971Z,2.80
2022-11-20T17:26:08.672Z,2.55
2022-11-20T17:29:12.326Z,1.33
2022-11-20T17:32:15.102Z,1.85
2022-11-20T17:35:17.626Z,2.40
2022-11-20T17:38:21.955Z,3.40
2022-11-20T17:41:25.497Z,2.05
2022-11-20T17:44:28.165Z,1.50
2022-11-20T17:47:30.635Z,1.65
2022-11-20T17:50:33.191Z,1.67
2022-11-20T17:53:38.367Z,1.52
2022-11-20T17:56:58.674Z,1.58
2022-11-20T18:00:01.250Z,1.33
2022-11-20T18:03:04.043Z,1.85
2022-11-20T18:06:11.088Z,1.83
2022-11-20T18:09:15.156Z,3.33
2022-11-20T18:12:17.645Z,1.65
2022-11-20T18:15:20.317Z,2.17
2022-11-20T18:18:22.960Z,1.48
2022-11-20T18:21:26.483Z,1.58
2022-11-20T18:24:30.737Z,1.85
2022-11-20T18:27:33.413Z,1.75
2022-11-20T18:30:37.294Z,4.28
2022-11-20T18:33:40.097Z,3.92
2022-11-20T18:36:43.315Z,2.45
2022-11-20T18:39:47.353Z,2.10
2022-11-20T18:43:07.481Z,1.50
2022-11-20T18:46:10.251Z,1.50
2022-11-20T18:49:13.068Z,1.77
2022-11-20T18:52:15.648Z,1.77
2022-11-20T18:55:19.747Z,2.42
2022-11-20T18:58:22.373Z,2.47
2022-11-20T19:01:24.947Z,2.42
2022-11-20T19:04:28.086Z,1.85
2022-11-20T19:07:31.054Z,1.83
2022-11-20T19:10:34.949Z,2.58
2022-11-20T19:13:37.753Z,3.47
2022-11-20T19:16:40.824Z,5.63
2022-11-20T19:19:43.391Z,6.18
2022-11-20T19:22:45.963Z,4.85
2022-11-20T19:25:49.851Z,4.75
2022-11-20T19:28:52.660Z,4.70
2022-11-20T19:31:55.327Z,5.53
2022-11-20T19:34:58.046Z,5.00
2022-11-20T19:38:05.348Z,5.90
2022-11-20T19:41:10.420Z,5.50
2022-11-20T19:44:14.024Z,4.85
2022-11-20T19:47:16.766Z,5.50
2022-11-20T19:50:20.055Z,5.85
2022-11-20T19:53:22.671Z,6.20
2022-11-20T19:56:27.224Z,5.55
2022-11-20T19:59:29.815Z,5.47
2022-11-20T20:02:32.359Z,5.07
2022-11-20T20:05:35.344Z,5.45
2022-11-20T20:08:37.904Z,4.97
2022-11-20T20:11:46.299Z,5.28
2022-11-20T20:14:48.824Z,5.72
2022-11-20T20:17:52.399Z,5.50
2022-11-20T20:20:57.525Z,5.40
2022-11-20T20:24:04.531Z,4.85
2022-11-20T20:27:08.390Z,5.68
2022-11-20T20:30:12.054Z,5.63
2022-11-20T20:33:14.555Z,5.35
2022-11-20T20:36:21.408Z,5.28
2022-11-20T20:39:25.172Z,5.95
2022-11-20T20:42:30.397Z,5.75
2022-11-20T20:45:32.982Z,5.72
2022-11-20T20:48:35.504Z,6.10
2022-11-20T20:51:38.027Z,6.00
2022-11-20T20:54:42.205Z,6.13
2022-11-20T20:57:46.093Z,5.60
2022-11-20T21:00:48.573Z,6.15
2022-11-20T21:03:51.109Z,7.03
2022-11-20T21:06:53.803Z,6.60
2022-11-20T21:09:56.407Z,6.63
2022-11-20T21:13:00.287Z,7.18
2022-11-20T21:16:03.252Z,6.75
2022-11-20T21:19:05.854Z,8.10
2022-11-20T21:22:07.345Z,8.55
2022-11-20T21:25:09.954Z,10.82
2022-11-20T21:28:18.022Z,9.75
2022-11-20T21:31:22.552Z,8.82
2022-11-20T21:34:25.924Z,8.73
2022-11-20T21:37:28.677Z,8.07
2022-11-20T21:40:31.328Z,8.00
2022-11-20T21:43:35.623Z,8.48
2022-11-20T21:46:39.285Z,8.40
2022-11-20T21:49:41.876Z,8.10
2022-11-20T21:52:44.469Z,8.82
2022-11-20T21:55:53.782Z,7.43
2022-11-20T21:58:58.656Z,7.60
2022-11-20T22:02:01.192Z,8.35
2022-11-20T22:05:03.697Z,7.40
2022-11-20T22:08:06.546Z,7.53
2022-11-20T22:11:10.502Z,7.30
2022-11-20T22:14:24.466Z,7.05
2022-11-20T22:17:41.266Z,6.60
2022-11-20T22:20:43.850Z,7.68
2022-11-20T22:23:46.336Z,7.25
2022-11-20T22:26:49.052Z,6.80
2022-11-20T22:29:53.178Z,7.63
2022-11-20T22:32:56.329Z,7.60
2022-11-20T22:36:02.618Z,7.07
2022-11-20T22:39:05.951Z,7.97
2022-11-20T22:42:08.553Z,7.43
2022-11-20T22:45:13.521Z,7.60
2022-11-20T22:48:16.114Z,8.57
2022-11-20T22:51:19.906Z,9.43
2022-11-20T22:54:22.700Z,8.82
2022-11-20T22:57:25.573Z,7.05
2022-11-20T23:00:29.413Z,6.15
2022-11-20T23:03:32.041Z,7.03
2022-11-20T23:06:35.046Z,6.80
2022-11-20T23:09:37.529Z,6.32
2022-11-20T23:12:40.038Z,5.82
2022-11-20T23:15:44.000Z,6.60
2022-11-20T23:18:46.877Z,6.85
2022-11-20T23:21:49.495Z,5.78
2022-11-20T23:24:52.029Z,5.80
2022-11-20T23:27:55.101Z,6.03
2022-11-20T23:30:59.077Z,6.45
2022-11-20T23:34:01.962Z,6.75
2022-11-20T23:37:04.499Z,6.35
2022-11-20T23:40:08.009Z,6.07
2022-11-20T23:43:16.363Z,6.10
2022-11-20T23:46:20.167Z,6.40
2022-11-20T23:49:22.663Z,6.20
2022-11-20T23:52:26.326Z,7.18
2022-11-20T23:55:28.866Z,7.45
2022-11-20T23:58:32.502Z,7.30
